Time;durP1;ratioP1;P1;durP2;ratioP2;P2;SDS_P1;SDS_P2;PMS_P1;PMS_P2;Temp;Humidity;BMP_temperature;BMP_pressure;BME280_temperature;BME280_humidity;BME280_pressure;Samples;Min_cycle;Max_cycle;Signal;HPM_P1;HPM_P2
2023/11/01 00:01:38;;;;;;;0.20;0.20;;;;;;;10.35;100.00;98451.25;4905954;29;20051;-59
2023/11/01 00:04:06;;;;;;;0.30;0.30;;;;;;;10.39;100.00;98446.97;4909524;29;20159;-58
2023/11/01 00:06:33;;;;;;;0.17;0.17;;;;;;;10.48;100.00;98450.78;4897805;29;20068;-58
2023/11/01 00:09:00;;;;;;;0.20;0.20;;;;;;;10.46;100.00;98452.91;4897834;29;20743;-59
2023/11/01 00:11:27;;;;;;;0.20;0.20;;;;;;;10.39;100.00;98441.63;4911581;29;20111;-58
2023/11/01 00:13:54;;;;;;;0.20;0.20;;;;;;;10.41;100.00;98433.31;4902426;29;20095;-58
2023/11/01 00:16:21;;;;;;;0.20;0.20;;;;;;;10.48;100.00;98437.38;4896730;29;20048;-58
2023/11/01 00:18:50;;;;;;;0.20;0.20;;;;;;;10.43;100.00;98434.66;4906480;29;20583;-58
2023/11/01 00:21:17;;;;;;;0.20;0.20;;;;;;;10.36;100.00;98436.78;4901477;29;20511;-58
2023/11/01 00:23:44;;;;;;;0.20;0.20;;;;;;;10.40;100.00;98437.88;4907583;29;20048;-59
2023/11/01 00:26:11;;;;;;;0.22;0.22;;;;;;;10.35;100.00;98425.25;4904138;29;20143;-58
2023/11/01 00:28:38;;;;;;;0.20;0.20;;;;;;;10.38;100.00;98436.50;4911879;29;20058;-59
2023/11/01 00:31:05;;;;;;;0.20;0.20;;;;;;;10.45;100.00;98429.06;4900101;29;20156;-58
2023/11/01 00:33:32;;;;;;;0.20;0.20;;;;;;;10.40;100.00;98424.47;4898091;29;20036;-59
2023/11/01 00:36:01;;;;;;;0.20;0.20;;;;;;;10.44;100.00;98430.13;4920293;29;20040;-59
2023/11/01 00:38:28;;;;;;;0.20;0.20;;;;;;;10.43;100.00;98429.31;4904138;29;20047;-59
2023/11/01 00:40:55;;;;;;;0.20;0.20;;;;;;;10.38;100.00;98434.63;4900757;29;20056;-60
2023/11/01 00:43:22;;;;;;;0.13;0.13;;;;;;;10.41;100.00;98434.13;4908040;29;20079;-60
2023/11/01 00:45:49;;;;;;;0.10;0.10;;;;;;;10.41;100.00;98431.47;4896557;29;20789;-59
2023/11/01 00:48:16;;;;;;;0.20;0.20;;;;;;;10.39;100.00;98424.75;4901215;29;20042;-59
2023/11/01 00:50:45;;;;;;;0.20;0.20;;;;;;;10.43;100.00;98429.31;4914337;29;21314;-60
2023/11/01 00:53:13;;;;;;;0.25;0.25;;;;;;;10.37;100.00;98416.97;4912752;29;20395;-59
2023/11/01 00:55:40;;;;;;;0.20;0.20;;;;;;;10.33;100.00;98415.88;4903352;29;20071;-59
2023/11/01 00:58:07;;;;;;;0.15;0.15;;;;;;;10.37;100.00;98408.94;4898406;29;21008;-59
2023/11/01 01:00:36;;;;;;;0.20;0.20;;;;;;;10.48;100.00;98413.28;4904049;29;20056;-60
2023/11/01 01:03:03;;;;;;;0.30;0.30;;;;;;;10.32;100.00;98414.25;4904016;29;20066;-60
2023/11/01 01:05:30;;;;;;;0.20;0.20;;;;;;;10.35;100.00;98419.09;4921793;29;20088;-61
2023/11/01 01:07:57;;;;;;;0.20;0.20;;;;;;;10.32;100.00;98420.41;4906937;29;20096;-60
2023/11/01 01:10:25;;;;;;;0.20;0.20;;;;;;;10.30;100.00;98417.19;4900046;29;20499;-59
2023/11/01 01:12:53;;;;;;;0.20;0.20;;;;;;;10.30;100.00;98416.38;4902049;29;20898;-60
2023/11/01 01:15:20;;;;;;;0.20;0.20;;;;;;;10.30;100.00;98414.50;4908291;29;20055;-60
2023/11/01 01:17:47;;;;;;;0.20;0.20;;;;;;;10.27;100.00;98412.34;4901444;29;20144;-60
2023/11/01 01:20:14;;;;;;;0.20;0.20;;;;;;;10.21;100.00;98401.84;4911169;29;20059;-60
2023/11/01 01:22:41;;;;;;;0.10;0.10;;;;;;;10.27;100.00;98406.19;4909760;29;20071;-59
2023/11/01 01:25:08;;;;;;;0.20;0.20;;;;;;;10.31;100.00;98397.41;4906862;29;20127;-60
2023/11/01 01:27:37;;;;;;;0.20;0.20;;;;;;;10.31;100.00;98397.41;4899677;29;20297;-60
2023/11/01 01:30:04;;;;;;;0.20;0.20;;;;;;;10.34;100.00;98393.38;4899774;29;20044;-60
2023/11/01 01:32:32;;;;;;;0.20;0.20;;;;;;;10.35;100.00;98389.63;4903352;29;20040;-61
2023/11/01 01:34:59;;;;;;;0.20;0.20;;;;;;;10.28;100.00;98389.88;4912522;29;20139;-60
2023/11/01 01:37:26;;;;;;;0.20;0.20;;;;;;;10.32;100.00;98379.44;4910234;29;20127;-60
2023/11/01 01:39:53;;;;;;;0.20;0.20;;;;;;;10.31;100.00;98375.16;4899934;29;20059;-60
2023/11/01 01:42:20;;;;;;;0.20;0.20;;;;;;;10.27;100.00;98376.72;4908353;29;20241;-60
2023/11/01 01:44:50;;;;;;;0.20;0.20;;;;;;;10.30;100.00;98368.19;4899710;29;20132;-60
2023/11/01 01:47:17;;;;;;;0.20;0.20;;;;;;;10.26;100.00;98362.53;4907143;29;20040;-59
2023/11/01 01:49:45;;;;;;;0.20;0.20;;;;;;;10.29;100.00;98345.16;4906988;29;20052;-60
2023/11/01 01:52:12;;;;;;;0.20;0.20;;;;;;;10.27;100.00;98347.25;4909335;29;20052;-60
2023/11/01 01:54:39;;;;;;;0.20;0.20;;;;;;;10.29;100.00;98345.16;4901238;29;20032;-60
2023/11/01 01:57:06;;;;;;;0.20;0.20;;;;;;;10.32;100.00;98340.06;4896878;29;20044;-60
2023/11/01 01:59:34;;;;;;;0.20;0.20;;;;;;;10.25;100.00;98342.16;4909146;29;20067;-60
2023/11/01 02:02:03;;;;;;;0.20;0.20;;;;;;;10.25;100.00;98339.47;4898701;29;20048;-60
2023/11/01 02:04:30;;;;;;;0.20;0.20;;;;;;;10.26;100.00;98340.28;4908583;29;20080;-60
2023/11/01 02:06:57;;;;;;;0.28;0.28;;;;;;;10.27;100.00;98345.38;4896837;29;20100;-60
2023/11/01 02:09:25;;;;;;;0.20;0.20;;;;;;;10.29;100.00;98335.25;4910810;29;20052;-60
2023/11/01 02:11:53;;;;;;;0.10;0.10;;;;;;;10.26;100.00;98324.19;4906820;29;20054;-60
2023/11/01 02:14:21;;;;;;;0.20;0.20;;;;;;;10.22;100.00;98321.25;4902302;29;20127;-60
2023/11/01 02:16:48;;;;;;;0.20;0.20;;;;;;;10.21;100.00;98313.47;4907854;29;20143;-60
2023/11/01 02:19:16;;;;;;;0.20;0.20;;;;;;;10.28;100.00;98314.06;4909379;29;20072;-60
2023/11/01 02:21:43;;;;;;;0.20;0.20;;;;;;;10.31;100.00;98321.59;4907399;29;20495;-60
2023/11/01 02:24:12;;;;;;;0.20;0.20;;;;;;;10.24;100.00;98313.78;4900511;29;20104;-60
2023/11/01 02:26:39;;;;;;;0.25;0.25;;;;;;;10.30;100.00;98315.41;4904699;29;20406;-60
2023/11/01 02:29:06;;;;;;;0.20;0.20;;;;;;;10.23;100.00;98316.69;4913394;29;20050;-60
2023/11/01 02:31:33;;;;;;;0.13;0.13;;;;;;;10.19;100.00;98302.25;4897721;29;20503;-60
2023/11/01 02:34:01;;;;;;;0.20;0.20;;;;;;;10.15;100.00;98292.03;4910863;29;20695;-60
2023/11/01 02:36:28;;;;;;;0.20;0.20;;;;;;;10.02;100.00;98292.53;4908471;29;20044;-60
2023/11/01 02:38:55;;;;;;;0.20;0.20;;;;;;;10.05;100.00;98286.63;4903505;29;20044;-60
2023/11/01 02:41:24;;;;;;;0.20;0.20;;;;;;;10.09;100.00;98282.38;4903743;29;20160;-60
2023/11/01 02:43:51;;;;;;;0.15;0.15;;;;;;;10.05;100.00;98286.63;4906208;29;20054;-59
2023/11/01 02:46:18;;;;;;;0.28;0.28;;;;;;;10.13;100.00;98274.63;4906461;29;20119;-60
2023/11/01 02:48:46;;;;;;;0.20;0.20;;;;;;;10.02;100.00;98286.38;4905597;29;20075;-60
2023/11/01 02:51:14;;;;;;;0.20;0.20;;;;;;;9.93;100.00;98278.03;4909439;29;20048;-60
2023/11/01 02:53:41;;;;;;;0.20;0.20;;;;;;;9.94;100.00;98276.97;4905831;29;20044;-60
2023/11/01 02:56:08;;;;;;;0.20;0.20;;;;;;;9.95;100.00;98281.25;4898557;29;20143;-60
2023/11/01 02:58:37;;;;;;;0.17;0.17;;;;;;;9.88;100.00;98278.81;4907196;29;20146;-60
2023/11/01 03:01:05;;;;;;;0.20;0.20;;;;;;;9.86;100.00;98280.13;4907290;29;20067;-60
2023/11/01 03:03:32;;;;;;;0.20;0.20;;;;;;;9.90;100.00;98267.84;4906106;29;20056;-60
2023/11/01 03:05:59;;;;;;;0.10;0.10;;;;;;;10.00;100.00;98267.88;4914053;29;20040;-60
2023/11/01 03:08:26;;;;;;;0.20;0.20;;;;;;;9.93;100.00;98272.66;4904561;29;20045;-60
2023/11/01 03:10:54;;;;;;;0.20;0.20;;;;;;;9.91;100.00;98266.78;4899798;29;20509;-60
2023/11/01 03:13:21;;;;;;;0.20;0.20;;;;;;;9.90;100.00;98267.84;4905612;29;20201;-60
2023/11/01 03:15:49;;;;;;;0.20;0.20;;;;;;;9.95;100.00;98262.50;4905985;29;20083;-60
2023/11/01 03:18:16;;;;;;;0.20;0.20;;;;;;;9.90;100.00;98259.81;4903954;29;20048;-60
2023/11/01 03:20:43;;;;;;;0.20;0.20;;;;;;;9.93;100.00;98264.63;4907318;29;20055;-60
2023/11/01 03:23:10;;;;;;;0.20;0.20;;;;;;;9.97;100.00;98262.25;4905365;29;20752;-60
2023/11/01 03:25:37;;;;;;;0.20;0.20;;;;;;;10.01;100.00;98258.81;4917708;29;20052;-60
2023/11/01 03:28:04;;;;;;;0.30;0.30;;;;;;;10.08;100.00;98256.69;4895021;29;20615;-60
2023/11/01 03:30:31;;;;;;;0.20;0.20;;;;;;;10.10;100.00;98251.84;4905144;29;20076;-60
2023/11/01 03:33:00;;;;;;;0.20;0.20;;;;;;;10.16;100.00;98247.34;4907325;29;22127;-60
2023/11/01 03:35:27;;;;;;;0.20;0.20;;;;;;;10.24;100.00;98246.03;4906354;29;20056;-60
2023/11/01 03:37:54;;;;;;;0.30;0.30;;;;;;;10.24;100.00;98238.78;4906708;29;20045;-60
2023/11/01 03:40:21;;;;;;;0.30;0.30;;;;;;;10.25;100.00;98236.91;4903743;29;20055;-60
2023/11/01 03:42:48;;;;;;;0.20;0.20;;;;;;;10.28;100.00;98241.75;4901507;29;20139;-59
2023/11/01 03:45:17;;;;;;;0.20;0.20;;;;;;;10.33;100.00;98239.09;4910900;29;20123;-59
2023/11/01 03:47:44;;;;;;;0.20;0.20;;;;;;;10.40;100.00;98239.63;4913240;29;20065;-59
2023/11/01 03:50:13;;;;;;;0.20;0.20;;;;;;;10.36;100.00;98239.38;4907364;29;20051;-59
2023/11/01 03:52:40;;;;;;;0.20;0.20;;;;;;;10.34;100.00;98230.81;4905223;29;20135;-59
2023/11/01 03:55:11;;;;;;;0.10;0.10;;;;;;;10.34;100.00;98236.16;4906785;29;20566;-59
2023/11/01 03:57:38;;;;;;;0.20;0.20;;;;;;;10.46;100.00;98238.59;4901179;29;20051;-60
2023/11/01 04:00:07;;;;;;;0.20;0.20;;;;;;;10.53;100.00;98233.78;4899387;29;20076;-60
2023/11/01 04:02:34;;;;;;;0.30;0.30;;;;;;;10.63;100.00;98232.16;4908072;29;20130;-60
2023/11/01 04:05:01;;;;;;;0.20;0.20;;;;;;;10.53;100.00;98230.28;4914387;29;20285;-60
2023/11/01 04:07:29;;;;;;;0.20;0.20;;;;;;;10.61;100.00;98223.59;4902742;29;20564;-60
2023/11/01 04:09:57;;;;;;;0.30;0.30;;;;;;;10.61;100.00;98226.28;4902071;29;20133;-61
2023/11/01 04:12:24;;;;;;;0.20;0.20;;;;;;;10.63;100.00;98221.44;4904642;29;20398;-61
2023/11/01 04:14:51;;;;;;;0.10;0.10;;;;;;;10.63;100.00;98216.88;4908288;29;20080;-59
2023/11/01 04:17:18;;;;;;;0.20;0.20;;;;;;;10.67;100.00;98219.84;4895938;29;20044;-58
2023/11/01 04:19:45;;;;;;;0.20;0.20;;;;;;;10.67;100.00;98217.19;4918385;29;20052;-59
2023/11/01 04:22:13;;;;;;;0.20;0.20;;;;;;;10.72;100.00;98211.81;4905475;29;20062;-58
2023/11/01 04:24:41;;;;;;;0.20;0.20;;;;;;;10.76;100.00;98216.38;4900421;29;20048;-59
2023/11/01 04:27:08;;;;;;;0.20;0.20;;;;;;;10.72;100.00;98204.56;4907605;29;20079;-58
2023/11/01 04:29:35;;;;;;;0.20;0.20;;;;;;;10.75;100.00;98211.28;4904278;29;20078;-58
2023/11/01 04:32:05;;;;;;;0.20;0.20;;;;;;;10.86;100.00;98212.91;4906232;29;20562;-58
2023/11/01 04:34:32;;;;;;;0.30;0.30;;;;;;;10.79;100.00;98209.69;4905223;29;20045;-58
2023/11/01 04:37:00;;;;;;;0.30;0.30;;;;;;;10.76;100.00;98204.84;4901690;29;20931;-61
2023/11/01 04:39:27;;;;;;;0.20;0.20;;;;;;;10.76;100.00;98200.28;4903344;29;20511;-61
2023/11/01 04:41:56;;;;;;;0.20;0.20;;;;;;;10.82;100.00;98200.28;4915213;29;20127;-61
2023/11/01 04:44:23;;;;;;;0.20;0.20;;;;;;;10.86;100.00;98198.66;4900680;29;20085;-61
2023/11/01 04:46:50;;;;;;;0.20;0.20;;;;;;;10.87;100.00;98202.97;4905653;29;20143;-60
2023/11/01 04:49:18;;;;;;;0.20;0.20;;;;;;;10.86;100.00;98202.19;4901853;29;20389;-60
2023/11/01 04:51:45;;;;;;;0.30;0.30;;;;;;;10.86;100.00;98204.03;4905961;29;20092;-60
2023/11/01 04:54:12;;;;;;;0.20;0.20;;;;;;;10.86;100.00;98202.19;4907854;29;20129;-60
2023/11/01 04:56:39;;;;;;;0.20;0.20;;;;;;;10.89;100.00;98192.78;4911538;29;20119;-59
2023/11/01 04:59:08;;;;;;;0.30;0.30;;;;;;;10.92;100.00;98192.25;4903170;29;20052;-60
2023/11/01 05:01:36;;;;;;;0.20;0.20;;;;;;;10.87;100.00;98193.03;4908700;29;20145;-60
2023/11/01 05:04:04;;;;;;;0.20;0.20;;;;;;;10.87;100.00;98190.38;4898155;29;20048;-59
2023/11/01 05:06:31;;;;;;;0.10;0.10;;;;;;;10.90;100.00;98187.13;4913640;29;20127;-60
2023/11/01 05:08:58;;;;;;;0.30;0.30;;;;;;;10.95;100.00;98187.13;4904716;29;20567;-60
2023/11/01 05:11:25;;;;;;;0.20;0.20;;;;;;;10.87;100.00;98185.00;4903130;29;20062;-59
2023/11/01 05:13:52;;;;;;;0.20;0.20;;;;;;;10.83;100.00;98188.50;4901987;29;20044;-60
2023/11/01 05:16:20;;;;;;;0.20;0.20;;;;;;;10.86;100.00;98194.13;4908615;29;20536;-60
2023/11/01 05:18:47;;;;;;;0.20;0.20;;;;;;;10.90;100.00;98197.88;4901042;29;20140;-60
2023/11/01 05:21:16;;;;;;;0.20;0.20;;;;;;;10.94;100.00;98196.25;4908623;29;20409;-60
2023/11/01 05:23:44;;;;;;;0.20;0.20;;;;;;;10.93;100.00;98191.97;4903917;29;20050;-60
2023/11/01 05:26:14;;;;;;;0.17;0.17;;;;;;;10.97;100.00;98195.72;4908526;29;20044;-60
2023/11/01 05:28:42;;;;;;;0.20;0.20;;;;;;;10.94;100.00;98193.59;4896132;29;20044;-59
2023/11/01 05:31:09;;;;;;;0.17;0.17;;;;;;;10.95;100.00;98195.19;4900344;29;20448;-60
2023/11/01 05:33:37;;;;;;;0.20;0.20;;;;;;;11.01;100.00;98196.00;4907913;29;20484;-60
2023/11/01 05:36:06;;;;;;;0.15;0.15;;;;;;;10.92;100.00;98193.03;4902517;29;20048;-60
2023/11/01 05:38:33;;;;;;;0.30;0.30;;;;;;;10.96;100.00;98194.13;4905474;29;20244;-60
2023/11/01 05:41:00;;;;;;;0.20;0.20;;;;;;;10.97;100.00;98190.34;4906061;29;20047;-58
2023/11/01 05:43:27;;;;;;;0.20;0.20;;;;;;;10.97;100.00;98195.72;4904740;29;20047;-60
2023/11/01 05:45:54;;;;;;;0.20;0.20;;;;;;;10.98;100.00;98191.97;4894083;29;20744;-59
2023/11/01 05:48:21;;;;;;;0.20;0.20;;;;;;;10.97;100.00;98190.34;4910377;29;20107;-60
2023/11/01 05:50:50;;;;;;;0.20;0.20;;;;;;;11.03;100.00;98191.13;4905060;29;20108;-60
2023/11/01 05:53:16;;;;;;;0.17;0.17;;;;;;;10.88;100.00;98199.19;4904016;29;20051;-60
2023/11/01 05:55:44;;;;;;;0.20;0.20;;;;;;;10.97;100.00;98194.91;4905406;29;20076;-59
2023/11/01 05:58:11;;;;;;;0.10;0.10;;;;;;;10.86;100.00;98199.50;4911558;29;20496;-60
2023/11/01 06:00:39;;;;;;;0.20;0.20;;;;;;;10.89;100.00;98187.44;4901718;29;20048;-59
2023/11/01 06:03:06;;;;;;;0.17;0.17;;;;;;;10.94;100.00;98190.09;4901041;29;20417;-59
2023/11/01 06:05:35;;;;;;;0.20;0.20;;;;;;;10.91;100.00;98196.81;4900449;29;20060;-60
2023/11/01 06:08:03;;;;;;;0.20;0.20;;;;;;;10.92;100.00;98198.41;4902916;29;20139;-60
2023/11/01 06:10:30;;;;;;;0.30;0.30;;;;;;;10.86;100.00;98207.53;4900838;29;20040;-60
2023/11/01 06:12:57;;;;;;;0.28;0.28;;;;;;;10.85;100.00;98208.59;4901605;29;20140;-59
2023/11/01 06:15:25;;;;;;;0.20;0.20;;;;;;;10.90;100.00;98194.38;4904967;29;20036;-60
2023/11/01 06:17:52;;;;;;;0.20;0.20;;;;;;;10.88;100.00;98201.88;4903838;29;20059;-59
2023/11/01 06:20:19;;;;;;;0.10;0.10;;;;;;;10.92;100.00;98193.03;4897445;29;20041;-59
2023/11/01 06:22:46;;;;;;;0.10;0.10;;;;;;;10.98;100.00;98196.50;4900292;29;20122;-60
2023/11/01 06:25:16;;;;;;;0.20;0.20;;;;;;;10.91;100.00;98188.75;4911395;29;20052;-59
2023/11/01 06:27:44;;;;;;;0.20;0.20;;;;;;;10.95;100.00;98195.19;4910010;29;20135;-59
2023/11/01 06:30:13;;;;;;;0.20;0.20;;;;;;;10.94;100.00;98190.91;4905538;29;20051;-59
2023/11/01 06:32:40;;;;;;;0.30;0.30;;;;;;;10.93;100.00;98196.53;4907424;29;20060;-59
2023/11/01 06:35:08;;;;;;;0.10;0.10;;;;;;;10.95;100.00;98197.06;4902740;29;20474;-59
2023/11/01 06:37:35;;;;;;;0.30;0.30;;;;;;;10.99;100.00;98204.28;4904519;29;20068;-60
2023/11/01 06:40:02;;;;;;;0.20;0.20;;;;;;;11.01;100.00;98206.72;4903937;29;20682;-59
2023/11/01 06:42:30;;;;;;;0.10;0.10;;;;;;;11.00;100.00;98203.22;4906053;29;20135;-60
2023/11/01 06:44:58;;;;;;;0.20;0.20;;;;;;;11.05;100.00;98201.59;4907704;29;20048;-60
2023/11/01 06:47:25;;;;;;;0.20;0.20;;;;;;;11.06;100.00;98198.66;4901189;29;20044;-58
2023/11/01 06:49:52;;;;;;;0.20;0.20;;;;;;;11.00;100.00;98202.41;4904232;29;20673;-60
2023/11/01 06:52:19;;;;;;;0.10;0.10;;;;;;;10.96;100.00;98204.03;4904322;29;20405;-60
2023/11/01 06:54:46;;;;;;;0.20;0.20;;;;;;;11.02;100.00;98198.38;4903368;29;20078;-59
2023/11/01 06:57:13;;;;;;;0.13;0.13;;;;;;;11.01;100.00;98199.47;4911455;29;20051;-58
2023/11/01 06:59:41;;;;;;;0.20;0.20;;;;;;;11.06;100.00;98204.03;4911873;29;20123;-60
2023/11/01 07:02:08;;;;;;;0.10;0.10;;;;;;;11.04;100.00;98200.00;4909981;29;20052;-58
2023/11/01 07:04:35;;;;;;;0.20;0.20;;;;;;;11.03;100.00;98209.91;4909339;29;20160;-58
2023/11/01 07:07:03;;;;;;;0.20;0.20;;;;;;;11.12;100.00;98202.13;4901713;29;20049;-58
2023/11/01 07:09:31;;;;;;;0.20;0.20;;;;;;;11.10;100.00;98204.28;4909861;29;20104;-59
2023/11/01 07:11:58;;;;;;;0.10;0.10;;;;;;;11.11;100.00;98203.22;4909245;29;20054;-59
2023/11/01 07:14:25;;;;;;;0.20;0.20;;;;;;;11.11;100.00;98201.34;4908238;29;20521;-58
2023/11/01 07:16:54;;;;;;;0.13;0.13;;;;;;;11.17;100.00;98205.59;4912023;29;20067;-59
2023/11/01 07:19:21;;;;;;;0.10;0.10;;;;;;;11.15;100.00;98206.94;4906976;29;20056;-59
2023/11/01 07:21:48;;;;;;;0.20;0.20;;;;;;;11.18;100.00;98204.56;4899560;29;20064;-59
2023/11/01 07:24:15;;;;;;;0.22;0.22;;;;;;;11.26;100.00;98210.41;4907642;29;20462;-59
2023/11/01 07:26:42;;;;;;;0.20;0.20;;;;;;;11.17;100.00;98210.97;4910023;29;20168;-59
2023/11/01 07:29:09;;;;;;;0.20;0.20;;;;;;;11.31;100.00;98202.38;4905439;29;20040;-59
2023/11/01 07:31:41;;;;;;;0.20;0.20;;;;;;;11.24;100.00;98202.66;4908013;29;20143;-59
2023/11/01 07:34:09;;;;;;;0.20;0.20;;;;;;;11.26;100.00;98197.81;4907602;29;20554;-59
2023/11/01 07:36:36;;;;;;;0.20;0.20;;;;;;;11.29;100.00;98197.28;4908643;29;20046;-58
2023/11/01 07:39:03;;;;;;;0.10;0.10;;;;;;;11.29;100.00;98205.31;4910824;29;20041;-59
2023/11/01 07:41:30;;;;;;;0.10;0.10;;;;;;;11.33;100.00;98198.34;4897301;29;20127;-59
2023/11/01 07:43:57;;;;;;;0.20;0.20;;;;;;;11.37;100.00;98199.41;4906448;29;20055;-58
2023/11/01 07:46:24;;;;;;;0.20;0.20;;;;;;;11.41;100.00;98200.47;4909700;29;20398;-59
2023/11/01 07:48:52;;;;;;;0.20;0.20;;;;;;;11.37;100.00;98199.41;4901108;29;20522;-59
2023/11/01 07:51:21;;;;;;;0.20;0.20;;;;;;;11.42;100.00;98201.25;4910863;29;20111;-59
2023/11/01 07:53:48;;;;;;;0.10;0.10;;;;;;;11.39;100.00;98205.28;4912982;29;20437;-59
2023/11/01 07:56:15;;;;;;;0.20;0.20;;;;;;;11.31;100.00;98205.84;4909961;29;20041;-59
2023/11/01 07:58:43;;;;;;;0.25;0.25;;;;;;;11.38;100.00;98201.03;4902142;29;20373;-59
2023/11/01 08:01:10;;;;;;;0.30;0.30;;;;;;;11.58;100.00;98199.31;4904889;29;20055;-59
2023/11/01 08:03:37;;;;;;;0.30;0.30;;;;;;;11.60;100.00;98200.66;4907577;29;20040;-59
2023/11/01 08:06:05;;;;;;;0.20;0.20;;;;;;;11.77;100.00;98207.59;4909035;29;20081;-59
2023/11/01 08:08:33;;;;;;;0.20;0.20;;;;;;;11.84;100.00;98203.53;4911238;29;20047;-59
2023/11/01 08:11:01;;;;;;;0.10;0.10;;;;;;;11.64;100.00;98195.56;4902057;29;20103;-59
2023/11/01 08:13:28;;;;;;;0.20;0.20;;;;;;;11.80;100.00;98199.78;4907746;29;20127;-59
2023/11/01 08:15:55;;;;;;;0.15;0.15;;;;;;;11.84;100.00;98198.16;4907492;29;20052;-59
2023/11/01 08:18:22;;;;;;;0.25;0.25;;;;;;;11.87;100.00;98196.84;4910547;29;20070;-59
2023/11/01 08:20:49;;;;;;;0.20;0.20;;;;;;;11.96;100.00;98195.19;4905001;29;20056;-59
2023/11/01 08:23:16;;;;;;;0.10;0.10;;;;;;;11.85;100.00;98194.38;4904350;29;20068;-59
2023/11/01 08:25:44;;;;;;;0.20;0.20;;;;;;;11.87;100.00;98192.25;4906370;29;20503;-59
2023/11/01 08:28:11;;;;;;;0.10;0.10;;;;;;;11.86;100.00;98196.03;4910796;29;20040;-58
2023/11/01 08:30:38;;;;;;;0.15;0.15;;;;;;;11.81;100.00;98193.34;4909025;29;20125;-59
2023/11/01 08:33:05;;;;;;;0.10;0.10;;;;;;;11.71;100.00;98192.59;4904395;29;20051;-59
2023/11/01 08:35:32;;;;;;;0.10;0.10;;;;;;;11.90;100.00;98179.38;4913295;29;20048;-59
2023/11/01 08:37:59;;;;;;;0.20;0.20;;;;;;;11.80;100.00;98190.94;4904246;29;20482;-58
2023/11/01 08:40:26;;;;;;;0.20;0.20;;;;;;;11.89;100.00;98183.16;4905050;29;20601;-59
2023/11/01 08:43:13;;;;;;;0.10;0.10;;;;;;;11.95;100.00;98187.38;4907218;29;20071;-59
2023/11/01 08:45:40;;;;;;;0.10;0.10;;;;;;;11.97;100.00;98193.28;4906889;29;20151;-59
2023/11/01 08:48:07;;;;;;;0.10;0.10;;;;;;;11.95;100.00;98187.38;4902495;29;20724;-59
2023/11/01 08:50:34;;;;;;;0.20;0.20;;;;;;;11.94;100.00;98191.16;4906647;29;20064;-58
2023/11/01 08:53:02;;;;;;;0.17;0.17;;;;;;;11.96;100.00;98184.44;4906842;29;20589;-59
2023/11/01 08:55:29;;;;;;;0.20;0.20;;;;;;;12.03;100.00;98190.31;4910916;29;20044;-58
2023/11/01 08:57:56;;;;;;;0.10;0.10;;;;;;;12.11;100.00;98186.25;4902659;29;20052;-59
2023/11/01 09:00:24;;;;;;;0.20;0.20;;;;;;;11.71;100.00;98196.06;4901327;29;20583;-58
2023/11/01 09:02:54;;;;;;;0.20;0.20;;;;;;;11.76;100.00;98192.56;4904864;29;20052;-59
2023/11/01 09:05:22;;;;;;;0.17;0.17;;;;;;;11.94;100.00;98183.13;4918399;29;20143;-58
2023/11/01 09:07:49;;;;;;;0.20;0.20;;;;;;;11.99;100.00;98183.09;4905396;29;20140;-58
2023/11/01 09:10:16;;;;;;;0.17;0.17;;;;;;;12.12;100.00;98187.84;4896119;29;20571;-59
2023/11/01 09:12:43;;;;;;;0.10;0.10;;;;;;;12.04;100.00;98180.38;4898226;29;20052;-58
2023/11/01 09:15:10;;;;;;;0.10;0.10;;;;;;;12.01;100.00;98176.34;4905372;29;20045;-58
2023/11/01 09:17:39;;;;;;;0.20;0.20;;;;;;;12.09;100.00;98177.66;4911063;29;20040;-58
2023/11/01 09:20:07;;;;;;;0.20;0.20;;;;;;;12.19;100.00;98172.22;4906678;29;20048;-58
2023/11/01 09:22:35;;;;;;;0.25;0.25;;;;;;;12.12;100.00;98169.03;4905220;29;20079;-60
2023/11/01 09:25:03;;;;;;;0.10;0.10;;;;;;;12.09;100.00;98164.22;4908073;29;20443;-60
2023/11/01 09:27:30;;;;;;;0.20;0.20;;;;;;;12.14;100.00;98174.94;4909848;29;20349;-58
2023/11/01 09:29:57;;;;;;;0.20;0.20;;;;;;;12.05;100.00;98172.03;4903530;29;20052;-58
2023/11/01 09:32:24;;;;;;;0.10;0.10;;;;;;;12.23;100.00;98184.03;4910287;29;20036;-58
2023/11/01 09:34:52;;;;;;;0.20;0.20;;;;;;;12.38;100.00;98177.75;4904076;29;20050;-60
2023/11/01 09:37:19;;;;;;;0.13;0.13;;;;;;;12.48;100.00;98179.53;4900585;29;20059;-60
2023/11/01 09:39:46;;;;;;;0.20;0.20;;;;;;;12.37;100.00;98183.38;4902989;29;20048;-60
2023/11/01 09:42:20;;;;;;;0.20;0.20;;;;;;;12.41;100.00;98189.81;4906023;29;20044;-58
2023/11/01 09:44:47;;;;;;;0.20;0.20;;;;;;;12.26;100.00;98188.84;4903308;29;20135;-60
2023/11/01 09:47:14;;;;;;;0.20;0.20;;;;;;;12.12;100.00;98195.91;4908358;29;20040;-60
2023/11/01 09:49:42;;;;;;;0.20;0.20;;;;;;;12.32;100.00;98189.59;4906058;29;20135;-59
2023/11/01 09:52:11;;;;;;;0.20;0.20;;;;;;;12.10;100.00;98195.38;4908123;29;20206;-59
2023/11/01 09:54:40;;;;;;;0.10;0.10;;;;;;;12.22;100.00;98198.50;4906489;29;20058;-59
2023/11/01 09:57:07;;;;;;;0.20;0.20;;;;;;;12.06;100.00;98202.38;4903220;29;20570;-59
2023/11/01 09:59:34;;;;;;;0.10;0.10;;;;;;;12.22;100.00;98198.50;4902851;29;20055;-59
2023/11/01 10:02:02;;;;;;;0.20;0.20;;;;;;;12.30;100.00;98195.25;4903789;29;20104;-59
2023/11/01 10:04:29;;;;;;;0.20;0.20;;;;;;;12.26;100.00;98198.78;4909364;29;20044;-59
2023/11/01 10:06:56;;;;;;;0.20;0.20;;;;;;;12.35;100.00;98185.53;4904195;29;20276;-59
2023/11/01 10:09:28;;;;;;;0.15;0.15;;;;;;;12.20;100.00;98181.88;4907318;29;20090;-59
2023/11/01 10:11:55;;;;;;;0.20;0.20;;;;;;;12.32;100.00;98183.44;4906648;29;20154;-59
2023/11/01 10:14:27;;;;;;;0.20;0.20;;;;;;;12.38;100.00;98183.13;4903981;29;20134;-59
2023/11/01 10:16:55;;;;;;;0.10;0.10;;;;;;;12.09;100.00;98183.81;4908938;29;20060;-60
2023/11/01 10:19:22;;;;;;;0.10;0.10;;;;;;;12.27;100.00;98171.63;4913654;29;20100;-59
2023/11/01 10:21:49;;;;;;;0.10;0.10;;;;;;;12.38;100.00;98168.84;4914983;29;20071;-60
2023/11/01 10:24:16;;;;;;;0.10;0.10;;;;;;;12.13;100.00;98161.78;4897495;29;20036;-60
2023/11/01 10:26:45;;;;;;;0.10;0.10;;;;;;;12.35;100.00;98159.47;4908436;29;20124;-59
2023/11/01 10:29:12;;;;;;;0.20;0.20;;;;;;;12.55;100.00;98163.09;4901673;29;20483;-58
2023/11/01 10:31:40;;;;;;;0.10;0.10;;;;;;;12.27;100.00;98158.19;4908667;29;20522;-59
2023/11/01 10:34:13;;;;;;;0.20;0.20;;;;;;;12.41;100.00;98161.06;4906995;29;20052;-59
2023/11/01 10:36:51;;;;;;;0.20;0.20;;;;;;;12.18;100.00;98159.88;4915593;29;20036;-59
2023/11/01 10:39:18;;;;;;;0.20;0.20;;;;;;;12.45;100.00;98159.41;4910332;29;20135;-60
2023/11/01 10:41:49;;;;;;;0.20;0.20;;;;;;;12.42;100.00;98148.41;4907733;29;20049;-59
2023/11/01 10:44:16;;;;;;;0.20;0.20;;;;;;;12.35;100.00;98142.56;4906330;29;20048;-60
2023/11/01 10:46:43;;;;;;;0.10;0.10;;;;;;;12.59;100.00;98146.13;4909523;29;20052;-59
2023/11/01 10:49:10;;;;;;;0.20;0.20;;;;;;;12.29;100.00;98145.28;4908920;29;20044;-60
2023/11/01 10:51:38;;;;;;;0.20;0.20;;;;;;;12.47;100.00;98133.03;4910238;29;20100;-59
2023/11/01 10:54:05;;;;;;;0.10;0.10;;;;;;;12.60;100.00;98133.47;4900297;29;20045;-59
2023/11/01 10:56:32;;;;;;;0.20;0.20;;;;;;;12.61;100.00;98127.84;4907375;29;20123;-59
2023/11/01 10:59:04;;;;;;;0.10;0.10;;;;;;;12.79;100.00;98112.09;4906714;29;20041;-60
2023/11/01 11:01:35;;;;;;;0.20;0.20;;;;;;;12.68;100.00;98101.44;4904886;29;20047;-59
2023/11/01 11:04:10;;;;;;;0.20;0.20;;;;;;;12.74;100.00;98100.28;4906383;29;20063;-59
2023/11/01 11:06:43;;;;;;;0.10;0.10;;;;;;;13.05;100.00;98093.78;4910516;29;20195;-59
2023/11/01 11:09:22;;;;;;;0.20;0.20;;;;;;;12.91;100.00;98089.09;4908326;29;20059;-60
2023/11/01 11:12:19;;;;;;;0.20;0.20;;;;;;;12.70;100.00;98079.63;4916673;29;20055;-59
2023/11/01 11:14:50;;;;;;;0.10;0.10;;;;;;;12.94;100.00;98071.59;4917749;29;20059;-59
2023/11/01 11:17:17;;;;;;;0.15;0.15;;;;;;;12.97;100.00;98073.69;4915100;29;20057;-59
2023/11/01 11:20:11;;;;;;;0.20;0.20;;;;;;;13.25;100.00;98069.34;4913180;29;20143;-59
2023/11/01 11:23:11;;;;;;;0.17;0.17;;;;;;;12.48;100.00;98064.78;4908508;29;20580;-59
2023/11/01 11:25:44;;;;;;;0.10;0.10;;;;;;;12.93;100.00;98051.97;4906276;29;20088;-59
2023/11/01 11:28:12;;;;;;;0.10;0.10;;;;;;;12.82;100.00;98046.97;4910691;29;20052;-59
2023/11/01 11:31:00;;;;;;;0.10;0.10;;;;;;;12.81;100.00;98054.25;4908771;29;20087;-59